Time;durP1;ratioP1;P1;durP2;ratioP2;P2;SDS_P1;SDS_P2;PMS_P1;PMS_P2;Temp;Humidity;BMP_temperature;BMP_pressure;BME280_temperature;BME280_humidity;BME280_pressure;Samples;Min_cycle;Max_cycle;Signal;HPM_P1;HPM_P2
2021/09/01 00:02:26;;;;;;;;;;;;;;;;;;;;;
2021/09/01 00:08:44;;;;;;;10.80;8.53;;;16.30;99.60;;;;;;4846414;29;20423;-93
2021/09/01 00:11:46;;;;;;;14.50;8.23;;;16.20;99.60;;;;;;4847312;29;20416;-92
2021/09/01 00:14:40;;;;;;;9.33;7.80;;;16.50;99.00;;;;;;4831588;29;20432;-93
2021/09/01 00:17:07;;;;;;;8.97;8.10;;;16.50;98.60;;;;;;5263289;23;20488;-91
2021/09/01 02:32:36;;;;;;;14.37;8.90;;;16.40;95.40;;;;;;4942948;29;20528;-92
2021/09/01 03:01:00;;;;;;;8.63;7.67;;;16.30;94.70;;;;;;4722037;23;20480;-92
2021/09/01 03:03:41;;;;;;;9.27;7.20;;;17.50;95.80;;;;;;4889333;29;20481;-92
2021/09/01 03:06:09;;;;;;;9.40;8.10;;;16.30;94.60;;;;;;4889855;29;20461;-92
2021/09/01 03:16:48;;;;;;;6.47;5.93;;;16.40;93.90;;;;;;5405938;23;20481;-91
2021/09/01 03:19:14;;;;;;;7.30;6.40;;;16.40;93.70;;;;;;4904993;29;20498;-91
2021/09/01 03:21:57;;;;;;;7.30;6.70;;;16.90;95.00;;;;;;4904862;29;20413;-91
2021/09/01 03:24:24;;;;;;;7.50;6.80;;;16.70;94.10;;;;;;4888037;29;20253;-91
2021/09/01 03:26:50;;;;;;;6.70;6.20;;;16.00;94.20;;;;;;4917145;29;20470;-92
2021/09/01 03:29:48;;;;;;;7.30;6.50;;;16.80;94.30;;;;;;4965282;23;20465;-92
2021/09/01 03:43:26;;;;;;;7.20;6.40;;;16.10;93.40;;;;;;4984323;23;20477;-92
2021/09/01 03:45:57;;;;;;;10.87;6.90;;;17.10;95.40;;;;;;4887850;29;20472;-92
2021/09/01 03:56:23;;;;;;;10.67;7.13;;;16.20;93.00;;;;;;5852400;23;20699;-91
2021/09/01 03:59:09;;;;;;;;;;;;;;;;;;;;;
2021/09/01 04:01:39;;;;;;;10.23;6.83;;;15.60;93.40;;;;;;4922659;29;20444;-93
2021/09/01 04:04:47;;;;;;;;;;;;;;;;;;;;;
2021/09/01 04:07:39;;;;;;;8.60;6.20;;;17.50;94.00;;;;;;4918225;29;20539;-93
2021/09/01 04:10:28;;;;;;;11.43;5.83;;;16.30;93.50;;;;;;4919365;29;20430;-92
2021/09/01 04:12:57;;;;;;;8.40;6.83;;;17.10;95.00;;;;;;4881258;29;20569;-89
2021/09/01 04:15:31;;;;;;;6.30;5.70;;;16.50;95.70;;;;;;4905022;29;20427;-92
2021/09/01 04:18:33;;;;;;;9.83;6.10;;;16.50;96.40;;;;;;4905436;29;20421;-91
2021/09/01 04:21:28;;;;;;;;;;;;;;;;;;;;;
2021/09/01 04:24:36;;;;;;;9.17;6.93;;;16.60;94.30;;;;;;4921235;29;20417;-90
2021/09/01 04:27:39;;;;;;;9.00;6.43;;;15.50;93.50;;;;;;4919519;29;20472;-92
2021/09/01 04:30:17;;;;;;;7.07;6.40;;;16.50;95.70;;;;;;4917768;29;20409;-93
2021/09/01 04:33:38;;;;;;;;;;;;;;;;;;;;;
2021/09/01 04:36:34;;;;;;;7.17;6.47;;;16.20;95.00;;;;;;4918901;29;20460;-91
2021/09/01 04:39:32;;;;;;;16.10;7.30;;;16.30;95.10;;;;;;4919062;29;20429;-91
2021/09/01 04:42:14;;;;;;;7.47;6.67;;;16.40;95.00;;;;;;4919261;29;20421;-91
2021/09/01 04:45:12;;;;;;;13.10;7.47;;;16.30;94.90;;;;;;4898889;29;20447;-93
2021/09/01 04:47:41;;;;;;;7.50;6.03;;;16.30;95.00;;;;;;4900064;29;20449;-90
2021/09/01 04:50:09;;;;;;;7.10;6.27;;;16.10;95.10;;;;;;4901402;29;20497;-91
2021/09/01 04:52:45;;;;;;;5.90;5.47;;;16.40;95.00;;;;;;4916698;29;20413;-92
2021/09/01 04:55:20;;;;;;;8.23;7.40;;;15.40;93.40;;;;;;4898188;29;20424;-93
2021/09/01 04:57:55;;;;;;;10.77;6.77;;;17.10;96.10;;;;;;4916684;29;20404;-90
2021/09/01 05:00:46;;;;;;;9.13;7.07;;;17.10;95.20;;;;;;4919174;29;20425;-93
2021/09/01 05:03:13;;;;;;;7.43;6.70;;;16.50;95.10;;;;;;4886798;29;20425;-93
2021/09/01 05:05:42;;;;;;;8.53;5.60;;;16.10;94.30;;;;;;4898307;29;20476;-91
2021/09/01 05:08:10;;;;;;;11.07;6.87;;;16.90;94.40;;;;;;4900858;29;20401;-88
2021/09/01 05:10:50;;;;;;;10.40;7.80;;;17.90;95.80;;;;;;4916584;29;20444;-93
2021/09/01 05:13:22;;;;;;;11.47;7.40;;;17.80;95.00;;;;;;4915551;29;20429;-92
2021/09/01 05:15:51;;;;;;;9.17;6.67;;;16.30;94.80;;;;;;4900278;29;20416;-92
2021/09/01 05:18:21;;;;;;;7.77;6.97;;;16.60;94.00;;;;;;4900323;29;20436;-91
2021/09/01 05:20:56;;;;;;;8.30;6.50;;;16.80;94.90;;;;;;4899568;29;20425;-92
2021/09/01 05:23:29;;;;;;;13.80;8.17;;;16.40;93.10;;;;;;4920393;29;20437;-87
2021/09/01 05:25:58;;;;;;;10.13;7.70;;;15.50;93.50;;;;;;4920617;29;20860;-84
2021/09/01 05:28:26;;;;;;;7.70;6.50;;;17.40;94.80;;;;;;4909275;29;20597;-89
2021/09/01 05:30:51;;;;;;;8.73;6.60;;;17.40;95.40;;;;;;4904525;29;20429;-89
2021/09/01 05:33:49;;;;;;;8.17;7.43;;;15.00;94.30;;;;;;4893261;29;20451;-93
2021/09/01 05:36:30;;;;;;;;;;;;;;;;;;;;;
2021/09/01 05:38:57;;;;;;;8.50;6.03;;;16.30;94.90;;;;;;4895209;29;20445;-91
2021/09/01 05:41:28;;;;;;;9.20;6.70;;;17.50;96.60;;;;;;4892589;29;20452;-88
2021/09/01 05:44:03;;;;;;;9.67;6.17;;;16.00;95.00;;;;;;4888736;29;20437;-90
2021/09/01 05:46:36;;;;;;;9.23;6.60;;;16.40;94.30;;;;;;4907064;29;20531;-90
2021/09/01 05:49:02;;;;;;;11.70;7.33;;;16.40;94.50;;;;;;4891694;29;20512;-90
2021/09/01 05:51:30;;;;;;;10.50;6.57;;;17.90;96.90;;;;;;4888543;29;20966;-92
2021/09/01 05:53:58;;;;;;;13.60;5.90;;;16.70;94.80;;;;;;4887249;29;20428;-88
2021/09/01 05:56:34;;;;;;;11.13;5.80;;;16.60;94.30;;;;;;4907296;29;20461;-87
2021/09/01 05:59:11;;;;;;;7.20;6.60;;;17.60;94.70;;;;;;4907130;29;20460;-91
2021/09/01 06:01:43;;;;;;;7.77;7.07;;;16.70;94.10;;;;;;4907056;29;20443;-89
2021/09/01 06:04:11;;;;;;;9.33;6.60;;;17.60;94.40;;;;;;4887891;29;20437;-86
2021/09/01 06:06:50;;;;;;;8.00;7.20;;;16.80;94.20;;;;;;4906125;29;20564;-89
2021/09/01 06:09:17;;;;;;;8.10;7.40;;;18.00;94.70;;;;;;4885483;29;20549;-89
2021/09/01 06:11:46;;;;;;;8.83;6.47;;;16.40;94.10;;;;;;4905782;29;20584;-89
2021/09/01 06:14:12;;;;;;;11.77;7.20;;;18.30;94.90;;;;;;4887321;29;20437;-89
2021/09/01 06:16:40;;;;;;;8.40;7.43;;;16.60;94.00;;;;;;4886860;29;20513;-89
2021/09/01 06:19:06;;;;;;;9.00;8.20;;;16.60;93.20;;;;;;4892173;29;20251;-89
2021/09/01 06:21:46;;;;;;;;;;;;;;;;;;;;;
2021/09/01 06:24:12;;;;;;;8.40;6.90;;;16.70;93.00;;;;;;4546605;29;10001302;-90
2021/09/01 06:26:41;;;;;;;11.83;10.70;;;17.10;93.30;;;;;;4880687;29;20517;-87
2021/09/01 06:29:06;;;;;;;9.43;8.67;;;18.10;94.80;;;;;;4863821;29;20753;-87
2021/09/01 06:31:39;;;;;;;13.00;7.70;;;17.80;94.50;;;;;;4882847;29;20441;-88
2021/09/01 06:34:05;;;;;;;9.63;6.97;;;16.70;93.90;;;;;;4879999;29;20645;-86
2021/09/01 06:36:31;;;;;;;8.33;7.27;;;16.70;92.60;;;;;;4865126;29;20490;-90
2021/09/01 06:38:57;;;;;;;8.33;6.70;;;18.00;93.10;;;;;;4880956;29;20852;-85
2021/09/01 06:41:22;;;;;;;9.70;6.17;;;17.20;93.10;;;;;;4883177;29;20193;-85
2021/09/01 06:43:48;;;;;;;6.63;5.70;;;17.30;92.90;;;;;;4882236;29;20184;-86
2021/09/01 06:46:16;;;;;;;7.33;6.40;;;18.40;93.30;;;;;;4867330;29;20213;-89
2021/09/01 06:48:42;;;;;;;7.00;5.70;;;18.40;93.00;;;;;;4886828;29;20208;-86
2021/09/01 06:51:07;;;;;;;9.03;6.33;;;18.00;92.70;;;;;;4872888;29;20410;-88
2021/09/01 06:53:33;;;;;;;6.70;6.07;;;17.00;92.20;;;;;;4869000;29;20197;-88
2021/09/01 06:56:00;;;;;;;10.27;9.10;;;18.10;93.10;;;;;;4870354;29;20571;-85
2021/09/01 06:58:25;;;;;;;7.10;6.40;;;17.10;91.70;;;;;;4870369;29;20556;-89
2021/09/01 07:00:51;;;;;;;6.43;5.83;;;18.30;92.10;;;;;;4886785;29;20421;-87
2021/09/01 07:03:20;;;;;;;6.77;6.27;;;18.70;92.00;;;;;;4883625;29;20173;-88
2021/09/01 07:05:50;;;;;;;9.83;8.83;;;17.20;91.70;;;;;;4888747;29;20557;-90
2021/09/01 07:08:17;;;;;;;8.37;6.77;;;17.30;91.00;;;;;;4903536;29;20429;-89
2021/09/01 07:10:44;;;;;;;10.03;6.07;;;16.70;90.30;;;;;;4885410;29;20485;-86
2021/09/01 07:13:12;;;;;;;7.57;6.53;;;17.50;90.00;;;;;;4903658;29;20424;-86
2021/09/01 07:15:37;;;;;;;7.33;6.73;;;19.00;90.80;;;;;;4909384;29;20425;-90
2021/09/01 07:18:03;;;;;;;8.60;5.43;;;17.40;90.50;;;;;;4891534;29;20548;-90
2021/09/01 07:20:29;;;;;;;5.80;5.17;;;18.80;90.80;;;;;;4890283;29;20193;-89
2021/09/01 07:22:55;;;;;;;5.40;4.87;;;17.50;89.40;;;;;;4905590;29;20739;-89
2021/09/01 07:25:26;;;;;;;11.27;5.30;;;17.60;88.90;;;;;;4905968;29;20188;-88
2021/09/01 07:27:54;;;;;;;11.13;5.07;;;17.60;88.20;;;;;;4911061;29;20165;-89
2021/09/01 07:30:20;;;;;;;5.60;5.07;;;18.60;90.90;;;;;;4891368;29;20460;-87
2021/09/01 07:32:48;;;;;;;9.27;5.07;;;18.70;88.40;;;;;;4908737;29;20393;-89
2021/09/01 07:35:14;;;;;;;6.80;4.70;;;17.80;86.60;;;;;;4910148;29;20417;-89
2021/09/01 07:37:54;;;;;;;6.53;5.37;;;17.90;87.40;;;;;;4895784;29;20653;-87
2021/09/01 07:40:22;;;;;;;5.40;4.90;;;16.90;86.00;;;;;;4913650;29;20160;-88
2021/09/01 07:42:47;;;;;;;6.00;4.30;;;17.80;86.20;;;;;;4913889;29;20405;-86
2021/09/01 07:45:15;;;;;;;7.03;5.03;;;19.00;88.80;;;;;;4899859;29;20429;-89
2021/09/01 07:47:55;;;;;;;4.77;4.37;;;17.90;86.10;;;;;;4899264;29;20185;-88
2021/09/01 07:50:23;;;;;;;5.50;4.83;;;17.90;84.30;;;;;;4896348;29;20435;-85
2021/09/01 07:52:49;;;;;;;5.67;4.53;;;17.90;84.50;;;;;;4915507;29;20431;-87
2021/09/01 07:55:23;;;;;;;8.93;4.40;;;17.90;84.50;;;;;;4895763;29;20424;-88
2021/09/01 07:57:48;;;;;;;7.27;4.60;;;17.90;83.40;;;;;;4861053;29;20504;-89
2021/09/01 08:00:15;;;;;;;6.37;4.87;;;17.80;83.20;;;;;;4889657;29;20441;-89
2021/09/01 08:02:41;;;;;;;6.57;4.27;;;17.90;83.80;;;;;;4872758;29;20178;-88
2021/09/01 08:05:08;;;;;;;9.50;5.13;;;19.60;85.80;;;;;;4873311;29;20419;-90
2021/09/01 08:07:36;;;;;;;8.27;4.80;;;17.90;82.40;;;;;;4889513;29;20232;-91
2021/09/01 08:10:04;;;;;;;5.23;4.73;;;19.00;84.40;;;;;;4872596;29;20508;-90
2021/09/01 08:13:12;;;;;;;4.20;3.90;;;17.80;83.30;;;;;;4892219;29;20426;-92
2021/09/01 08:15:47;;;;;;;5.10;4.67;;;17.90;83.60;;;;;;4896216;29;20416;-92
2021/09/01 08:18:12;;;;;;;4.83;4.53;;;18.50;86.60;;;;;;4881678;29;20435;-91
2021/09/01 08:20:40;;;;;;;5.27;4.60;;;17.80;86.00;;;;;;4894385;29;20422;-90
2021/09/01 08:23:06;;;;;;;5.93;5.50;;;17.70;86.50;;;;;;4876090;29;20838;-87
2021/09/01 08:25:31;;;;;;;5.90;5.20;;;17.70;87.00;;;;;;4871178;29;20180;-89
2021/09/01 08:28:00;;;;;;;8.33;4.63;;;17.80;86.60;;;;;;4872495;29;20185;-90
2021/09/01 08:30:26;;;;;;;6.97;5.03;;;18.10;88.40;;;;;;4871847;29;20169;-85
2021/09/01 08:32:52;;;;;;;6.93;5.00;;;17.90;85.80;;;;;;4870895;29;20751;-89
2021/09/01 08:35:17;;;;;;;6.60;6.00;;;18.40;84.60;;;;;;4884493;29;20490;-88
2021/09/01 08:37:43;;;;;;;6.07;5.47;;;19.50;86.60;;;;;;4869402;29;20198;-88
2021/09/01 08:40:13;;;;;;;8.13;5.80;;;19.70;85.90;;;;;;4870724;29;20174;-90
2021/09/01 08:42:46;;;;;;;6.13;5.53;;;18.20;82.90;;;;;;4873206;29;20207;-91
2021/09/01 08:45:22;;;;;;;6.50;5.60;;;19.90;87.30;;;;;;4868006;29;20415;-87
2021/09/01 08:47:49;;;;;;;6.60;5.33;;;18.00;79.50;;;;;;4853713;29;20529;-85
2021/09/01 08:50:20;;;;;;;6.20;4.63;;;17.10;77.30;;;;;;4976397;23;20504;-91
2021/09/01 08:52:49;;;;;;;7.23;6.60;;;19.30;80.50;;;;;;4197489;29;10022485;-91
2021/09/01 08:55:17;;;;;;;9.60;5.63;;;18.70;78.30;;;;;;4870468;29;20180;-90
2021/09/01 08:57:46;;;;;;;6.93;6.13;;;18.70;78.80;;;;;;4892171;29;20426;-92
2021/09/01 09:00:16;;;;;;;5.47;4.90;;;19.00;78.30;;;;;;4876131;29;20491;-92
2021/09/01 09:02:54;;;;;;;6.23;5.73;;;18.70;75.70;;;;;;4880656;29;20509;-90
2021/09/01 09:05:45;;;;;;;;;;;;;;;;;;;;;
2021/09/01 09:08:47;;;;;;;7.73;5.47;;;18.80;74.90;;;;;;4886090;29;20498;-90
2021/09/01 09:11:16;;;;;;;6.73;6.13;;;19.60;77.00;;;;;;4887410;29;20553;-87
2021/09/01 09:13:42;;;;;;;6.20;5.70;;;18.60;74.30;;;;;;4871866;29;20457;-88
2021/09/01 09:16:12;;;;;;;8.13;6.27;;;20.50;77.40;;;;;;4867090;29;20425;-91
2021/09/01 09:18:50;;;;;;;7.77;7.07;;;19.10;74.10;;;;;;4888549;29;20200;-89
2021/09/01 09:21:24;;;;;;;6.70;6.20;;;19.10;71.70;;;;;;4887948;29;20417;-90
2021/09/01 09:24:05;;;;;;;;;;;;;;;;;;;;;
2021/09/01 09:27:00;;;;;;;7.63;6.87;;;20.80;74.20;;;;;;4868579;29;20561;-87
2021/09/01 09:29:30;;;;;;;6.13;5.40;;;19.30;70.10;;;;;;4853646;29;20954;-90
2021/09/01 09:32:06;;;;;;;8.83;6.40;;;19.30;70.50;;;;;;4864551;29;20423;-85
2021/09/01 09:34:43;;;;;;;6.93;6.17;;;19.20;71.60;;;;;;4867597;29;20425;-88
2021/09/01 09:37:14;;;;;;;5.87;5.27;;;20.80;73.00;;;;;;4883499;29;20430;-90
2021/09/01 09:39:57;;;;;;;9.77;6.00;;;20.10;71.40;;;;;;4867636;29;20466;-90
2021/09/01 09:46:16;;;;;;;8.50;7.10;;;19.60;73.30;;;;;;4862489;29;20490;-89
2021/09/01 09:48:47;;;;;;;9.50;6.87;;;19.50;70.80;;;;;;4847865;29;20783;-88
2021/09/01 09:51:35;;;;;;;9.30;8.30;;;19.50;72.60;;;;;;4867067;29;20414;-89
2021/09/01 09:54:16;;;;;;;6.27;5.67;;;19.50;71.40;;;;;;4865329;29;20434;-86
2021/09/01 09:56:48;;;;;;;5.57;4.50;;;20.30;73.00;;;;;;4867144;29;20562;-84
2021/09/01 09:59:39;;;;;;;5.20;4.70;;;19.20;71.70;;;;;;4868116;29;20502;-89
2021/09/01 10:02:05;;;;;;;8.17;5.30;;;19.10;71.60;;;;;;4860630;29;20449;-87
2021/09/01 10:04:39;;;;;;;5.50;5.00;;;21.10;74.60;;;;;;4523243;29;10000587;-89
2021/09/01 10:07:07;;;;;;;7.43;4.80;;;19.40;70.90;;;;;;4866897;29;20213;-91
2021/09/01 10:09:41;;;;;;;7.40;6.00;;;19.30;71.30;;;;;;4849928;29;20442;-89
2021/09/01 10:12:11;;;;;;;5.60;4.70;;;19.40;70.30;;;;;;4819324;29;20448;-89
2021/09/01 10:14:51;;;;;;;5.57;5.07;;;19.40;71.00;;;;;;4832623;29;20745;-90
2021/09/01 10:17:23;;;;;;;7.50;5.10;;;19.50;70.60;;;;;;4832560;29;20496;-88
2021/09/01 10:20:01;;;;;;;4.70;4.30;;;19.50;70.30;;;;;;4854982;29;20447;-89
2021/09/01 10:22:33;;;;;;;9.40;6.80;;;18.80;70.80;;;;;;4855768;29;20450;-88
2021/09/01 10:25:12;;;;;;;13.93;8.07;;;20.20;72.00;;;;;;4855073;29;20502;-91
2021/09/01 10:27:44;;;;;;;12.00;7.63;;;19.40;70.00;;;;;;4837652;29;20487;-88
2021/09/01 10:30:11;;;;;;;8.07;6.50;;;20.70;71.90;;;;;;4841142;29;20434;-87
2021/09/01 10:33:20;;;;;;;;;;;;;;;;;;;;;
2021/09/01 10:36:02;;;;;;;;;;;;;;;;;;;;;
2021/09/01 10:38:54;;;;;;;13.00;8.37;;;20.40;71.60;;;;;;4852754;29;20514;-88
2021/09/01 10:41:32;;;;;;;11.30;7.73;;;19.60;69.30;;;;;;4839541;29;20420;-91
2021/09/01 10:44:24;;;;;;;10.23;9.23;;;19.50;67.70;;;;;;4837086;29;20456;-92
2021/09/01 10:46:58;;;;;;;11.30;10.03;;;19.80;70.40;;;;;;4839894;29;20463;-88
2021/09/01 10:53:21;;;;;;;8.13;7.07;;;19.80;64.50;;;;;;4829114;29;20458;-90
2021/09/01 10:55:59;;;;;;;10.73;9.80;;;20.00;64.70;;;;;;4875514;29;20395;-90
2021/09/01 10:58:44;;;;;;;11.60;10.60;;;20.00;64.40;;;;;;4875086;29;20419;-90
2021/09/01 11:01:27;;;;;;;12.20;10.90;;;20.00;65.00;;;;;;4856984;29;20446;-90
2021/09/01 11:04:12;;;;;;;11.37;10.13;;;21.40;68.00;;;;;;4855238;29;20430;-90
2021/09/01 11:06:43;;;;;;;10.13;9.00;;;19.90;64.90;;;;;;4855418;29;20557;-90
2021/09/01 11:09:27;;;;;;;11.23;9.60;;;20.00;66.50;;;;;;4854771;29;20825;-86
2021/09/01 11:12:41;;;;;;;9.70;8.80;;;20.00;65.40;;;;;;4874588;29;20887;-94
2021/09/01 11:15:12;;;;;;;10.20;9.17;;;23.10;69.60;;;;;;4872647;29;21002;-89
2021/09/01 11:17:41;;;;;;;8.40;7.70;;;20.00;64.30;;;;;;4852615;29;20521;-93
2021/09/01 11:20:31;;;;;;;9.90;8.10;;;19.90;66.20;;;;;;4853404;29;20423;-91
2021/09/01 11:23:07;;;;;;;13.47;8.13;;;20.10;64.90;;;;;;4869782;29;20503;-91
2021/09/01 11:25:33;;;;;;;9.10;8.23;;;20.10;64.90;;;;;;4857080;29;20462;-89
2021/09/01 11:28:24;;;;;;;8.80;7.93;;;20.10;67.10;;;;;;4857332;29;20442;-88
2021/09/01 11:30:55;;;;;;;9.30;8.40;;;19.70;64.40;;;;;;4855967;29;20423;-90
2021/09/01 11:33:29;;;;;;;10.93;8.93;;;20.00;65.40;;;;;;4857085;29;20442;-86
2021/09/01 11:36:12;;;;;;;10.70;8.00;;;19.70;67.80;;;;;;4857212;29;20427;-89
2021/09/01 11:39:16;;;;;;;;;;;;;;;;;;;;;
2021/09/01 11:42:03;;;;;;;11.67;10.20;;;20.40;68.80;;;;;;4870562;29;20502;-90
2021/09/01 11:47:28;;;;;;;13.23;11.93;;;19.50;66.40;;;;;;4872921;29;20518;-85
2021/09/01 11:49:58;;;;;;;11.63;10.50;;;21.00;70.40;;;;;;4871475;29;20458;-83
2021/09/01 11:52:34;;;;;;;12.40;10.30;;;19.30;68.60;;;;;;4854466;29;20194;-88
2021/09/01 11:55:01;;;;;;;11.10;10.10;;;20.20;68.80;;;;;;4852224;29;20414;-90
2021/09/01 11:57:55;;;;;;;;;;;;;;;;;;;;;
2021/09/01 12:00:42;;;;;;;13.30;11.20;;;18.90;66.70;;;;;;4911714;29;20444;-87
2021/09/01 12:03:18;;;;;;;14.77;12.60;;;19.30;67.20;;;;;;4909110;29;20432;-87
2021/09/01 12:05:49;;;;;;;13.00;11.93;;;20.30;69.70;;;;;;4901563;29;21015;-87
2021/09/01 12:08:44;;;;;;;12.90;10.97;;;20.40;68.70;;;;;;4884888;29;20445;-88
2021/09/01 12:11:14;;;;;;;14.77;10.13;;;19.40;66.50;;;;;;4881863;29;20430;-87
2021/09/01 12:13:42;;;;;;;13.07;11.77;;;20.20;67.70;;;;;;4901793;29;20425;-88
2021/09/01 12:16:11;;;;;;;15.27;11.80;;;20.10;67.10;;;;;;4901403;29;20492;-88
2021/09/01 12:18:56;;;;;;;44.63;27.00;;;20.60;68.30;;;;;;4886328;29;20429;-88
2021/09/01 12:21:43;;;;;;;16.47;14.97;;;19.60;67.30;;;;;;4902030;29;20443;-89
2021/09/01 12:24:26;;;;;;;12.83;11.60;;;19.60;66.20;;;;;;4885205;29;20436;-87
2021/09/01 12:27:02;;;;;;;13.27;12.07;;;19.60;66.60;;;;;;4901728;29;20484;-86
2021/09/01 12:29:49;;;;;;;13.77;12.37;;;19.70;66.60;;;;;;4883643;29;20498;-83
2021/09/01 12:32:19;;;;;;;18.23;13.00;;;19.70;66.60;;;;;;4885332;29;20417;-86
2021/09/01 12:34:55;;;;;;;21.87;18.00;;;21.10;69.10;;;;;;4883598;29;20417;-88
2021/09/01 12:37:27;;;;;;;19.00;15.60;;;20.10;66.80;;;;;;4901380;29;20441;-86
2021/09/01 12:40:02;;;;;;;17.00;15.40;;;20.90;68.80;;;;;;4900445;29;20424;-82
2021/09/01 12:42:32;;;;;;;14.87;13.37;;;19.50;66.30;;;;;;4899285;29;20929;-87
2021/09/01 12:45:23;;;;;;;14.23;12.83;;;19.70;67.80;;;;;;4881876;29;20504;-84
2021/09/01 12:47:56;;;;;;;16.70;14.97;;;18.90;65.70;;;;;;4892105;29;20441;-88
2021/09/01 12:50:31;;;;;;;21.83;15.17;;;19.50;67.70;;;;;;4886711;29;20466;-82
2021/09/01 12:53:06;;;;;;;16.47;15.07;;;19.50;67.70;;;;;;4881445;29;20418;-86
2021/09/01 12:55:36;;;;;;;16.83;15.27;;;19.60;67.30;;;;;;4868016;29;20794;-89
2021/09/01 12:58:07;;;;;;;15.80;14.40;;;20.70;68.70;;;;;;4883061;29;20426;-87
2021/09/01 13:00:36;;;;;;;16.23;14.70;;;19.30;67.60;;;;;;4869159;29;20447;-87
2021/09/01 13:03:02;;;;;;;15.90;14.40;;;20.40;68.90;;;;;;4847724;29;20435;-86
2021/09/01 13:05:28;;;;;;;16.57;14.97;;;19.70;70.10;;;;;;4844043;29;20454;-85
2021/09/01 13:07:54;;;;;;;17.03;15.47;;;19.50;68.30;;;;;;4829177;29;20447;-87
2021/09/01 13:10:24;;;;;;;18.67;16.93;;;21.00;70.40;;;;;;4846896;29;20186;-86
2021/09/01 13:12:55;;;;;;;30.13;22.90;;;19.70;66.40;;;;;;4846496;29;20431;-89
2021/09/01 13:15:42;;;;;;;16.80;15.30;;;19.80;68.20;;;;;;4829027;29;20458;-88
2021/09/01 13:18:11;;;;;;;18.63;15.10;;;20.80;69.70;;;;;;4829317;29;20928;-87
2021/09/01 13:20:37;;;;;;;17.13;15.33;;;21.10;71.30;;;;;;4834120;29;20946;-90
2021/09/01 13:23:07;;;;;;;19.97;16.30;;;20.00;68.70;;;;;;4855208;29;20461;-93
2021/09/01 13:25:35;;;;;;;19.00;16.57;;;19.90;69.10;;;;;;4838148;29;20442;-92
2021/09/01 13:28:03;;;;;;;16.10;14.57;;;19.50;68.70;;;;;;4836655;29;20435;-92
2021/09/01 13:30:32;;;;;;;15.67;14.17;;;19.40;68.20;;;;;;4824658;29;20455;-91
2021/09/01 13:33:25;;;;;;;21.10;16.70;;;19.60;68.70;;;;;;4855754;29;20947;-91
2021/09/01 13:36:01;;;;;;;15.20;13.70;;;19.80;68.40;;;;;;4838390;29;20446;-90
2021/09/01 13:38:34;;;;;;;16.63;14.40;;;19.30;68.80;;;;;;4826690;29;20436;-89
2021/09/01 13:41:13;;;;;;;;;;;;;;;;;;;;;
2021/09/01 13:43:46;;;;;;;19.10;15.00;;;19.10;69.80;;;;;;4856398;29;20450;-90
2021/09/01 13:46:20;;;;;;;16.80;15.07;;;18.50;69.70;;;;;;4840244;29;20516;-90
2021/09/01 13:48:49;;;;;;;16.20;14.60;;;18.00;68.50;;;;;;4837215;29;20462;-87
2021/09/01 13:51:31;;;;;;;17.50;13.87;;;19.70;72.30;;;;;;4837589;29;20451;-90
2021/09/01 13:57:05;;;;;;;15.17;13.60;;;18.50;70.40;;;;;;4856410;29;20621;-91
2021/09/01 13:59:32;;;;;;;16.43;14.63;;;20.30;73.30;;;;;;4835194;29;20525;-89
2021/09/01 14:01:58;;;;;;;15.10;13.67;;;19.00;71.60;;;;;;4836549;29;20569;-91
2021/09/01 14:04:24;;;;;;;16.10;14.50;;;19.00;71.10;;;;;;4832131;29;20455;-90
2021/09/01 14:06:50;;;;;;;15.10;13.80;;;20.10;73.00;;;;;;4833263;29;20515;-87
2021/09/01 14:09:15;;;;;;;18.13;14.97;;;18.80;72.30;;;;;;4851617;29;20419;-91
2021/09/01 14:11:44;;;;;;;15.97;14.20;;;20.00;75.60;;;;;;4849046;29;20503;-89
2021/09/01 14:14:11;;;;;;;16.00;14.37;;;18.80;73.70;;;;;;4850224;29;20243;-90
2021/09/01 14:16:37;;;;;;;19.60;15.17;;;18.70;72.50;;;;;;4833908;29;20456;-91
2021/09/01 14:19:04;;;;;;;16.77;13.57;;;18.70;74.80;;;;;;4849471;29;20431;-91
2021/09/01 14:21:32;;;;;;;16.10;14.37;;;20.20;75.80;;;;;;4832287;29;20435;-90
2021/09/01 14:23:58;;;;;;;17.40;14.97;;;18.80;74.50;;;;;;4848964;29;20428;-89
2021/09/01 14:26:24;;;;;;;15.10;13.60;;;20.50;76.70;;;;;;4834099;29;20479;-91
2021/09/01 14:28:49;;;;;;;15.33;13.83;;;20.40;75.50;;;;;;4834226;29;20538;-92
2021/09/01 14:31:15;;;;;;;38.17;20.47;;;19.40;73.60;;;;;;4836531;29;20182;-89
2021/09/01 14:33:46;;;;;;;15.47;13.87;;;18.90;72.50;;;;;;4857586;29;20484;-90
2021/09/01 14:36:12;;;;;;;17.70;13.70;;;19.00;71.60;;;;;;4839818;29;20202;-91
2021/09/01 14:38:46;;;;;;;16.67;15.00;;;19.20;72.70;;;;;;4851263;29;20424;-89
2021/09/01 14:41:14;;;;;;;15.13;13.53;;;18.90;72.40;;;;;;4851043;29;20521;-90
2021/09/01 14:43:39;;;;;;;19.60;14.03;;;20.00;75.80;;;;;;4849325;29;20415;-89
2021/09/01 14:46:05;;;;;;;18.50;14.50;;;20.10;77.60;;;;;;4832765;29;20487;-87
2021/09/01 14:48:37;;;;;;;15.00;13.50;;;19.00;73.70;;;;;;4851433;29;20627;-87
2021/09/01 14:51:04;;;;;;;19.67;15.37;;;20.10;75.70;;;;;;4872065;29;20740;-91
2021/09/01 14:53:30;;;;;;;21.20;18.30;;;19.00;74.30;;;;;;4854927;29;20434;-87
2021/09/01 14:55:58;;;;;;;19.40;14.73;;;18.90;73.10;;;;;;4888268;29;20413;-90
2021/09/01 14:58:24;;;;;;;16.23;14.57;;;18.90;73.70;;;;;;4876643;29;20178;-88
2021/09/01 15:00:50;;;;;;;16.60;13.40;;;19.70;76.50;;;;;;4877081;29;20440;-89
2021/09/01 15:03:18;;;;;;;15.17;13.60;;;19.30;76.50;;;;;;4892889;29;20173;-91
2021/09/01 15:05:48;;;;;;;25.00;15.40;;;18.90;74.40;;;;;;4873931;29;20197;-89
2021/09/01 15:08:13;;;;;;;18.83;16.30;;;20.20;77.80;;;;;;4893525;29;20434;-90
2021/09/01 15:10:41;;;;;;;22.90;17.20;;;18.20;73.70;;;;;;4891693;29;20421;-92
2021/09/01 15:13:07;;;;;;;19.17;17.03;;;20.20;75.30;;;;;;4892848;29;20209;-87
2021/09/01 15:15:33;;;;;;;17.17;15.47;;;19.00;73.60;;;;;;4879224;29;20446;-92
2021/09/01 15:18:02;;;;;;;20.37;18.40;;;19.00;74.00;;;;;;4891291;29;20201;-90
2021/09/01 15:20:33;;;;;;;22.43;20.00;;;19.20;72.30;;;;;;4875784;29;20445;-90
2021/09/01 15:22:59;;;;;;;20.73;18.47;;;19.20;70.90;;;;;;4880616;29;20430;-88
2021/09/01 15:25:34;;;;;;;21.37;18.97;;;20.20;72.40;;;;;;4333616;29;10001674;-88
2021/09/01 15:27:59;;;;;;;25.93;20.23;;;19.20;70.10;;;;;;4908535;29;20181;-86
2021/09/01 15:30:28;;;;;;;23.30;20.67;;;20.00;69.70;;;;;;4893345;29;20429;-91
2021/09/01 15:32:54;;;;;;;26.13;19.93;;;19.30;67.60;;;;;;4891870;29;20565;-91
2021/09/01 15:35:21;;;;;;;15.87;14.20;;;20.90;71.10;;;;;;4909444;29;20473;-89
2021/09/01 15:37:57;;;;;;;17.77;15.10;;;20.50;73.70;;;;;;4891614;29;20252;-91
2021/09/01 15:40:23;;;;;;;16.43;14.77;;;19.20;72.60;;;;;;4892237;29;20433;-91
2021/09/01 15:42:59;;;;;;;23.73;16.73;;;20.80;74.40;;;;;;4911211;29;20439;-88
2021/09/01 15:45:31;;;;;;;19.57;17.53;;;19.20;72.10;;;;;;4892346;29;20160;-93
2021/09/01 15:48:09;;;;;;;18.53;16.60;;;20.60;75.00;;;;;;4905986;29;20440;-89
2021/09/01 15:50:39;;;;;;;22.03;16.37;;;19.00;72.60;;;;;;4884342;29;20526;-90
2021/09/01 15:53:09;;;;;;;19.13;17.23;;;17.90;73.60;;;;;;4876982;29;20442;-90
2021/09/01 15:55:38;;;;;;;18.10;16.13;;;19.40;75.70;;;;;;4873836;29;20930;-90
2021/09/01 15:58:13;;;;;;;20.50;18.27;;;18.90;74.40;;;;;;4867874;29;20711;-87
2021/09/01 16:00:39;;;;;;;20.77;17.80;;;20.40;76.30;;;;;;4866891;29;20746;-85
2021/09/01 16:03:09;;;;;;;19.93;17.90;;;18.90;74.40;;;;;;4882884;29;21023;-87
2021/09/01 16:05:41;;;;;;;19.67;17.73;;;18.90;75.80;;;;;;4866275;29;20485;-87
2021/09/01 16:08:08;;;;;;;20.03;17.93;;;18.90;76.70;;;;;;4881694;29;20438;-87
2021/09/01 16:10:37;;;;;;;20.57;18.23;;;18.70;76.20;;;;;;4883057;29;20914;-86
2021/09/01 16:13:07;;;;;;;21.27;19.10;;;17.70;75.70;;;;;;4865572;29;20663;-85
2021/09/01 16:15:52;;;;;;;19.00;17.00;;;19.80;79.20;;;;;;4865893;29;20418;-84
2021/09/01 16:18:49;;;;;;;19.47;17.53;;;18.80;78.60;;;;;;4883689;29;20430;-84
2021/09/01 16:21:25;;;;;;;22.13;19.60;;;18.70;79.00;;;;;;4881515;29;20418;-85
2021/09/01 16:23:51;;;;;;;21.67;19.20;;;19.70;80.90;;;;;;4881324;29;20421;-85
2021/09/01 16:26:17;;;;;;;21.93;19.73;;;18.40;80.10;;;;;;4882541;29;20878;-87
2021/09/01 16:28:47;;;;;;;21.43;19.10;;;18.70;81.00;;;;;;4882856;29;20414;-84
2021/09/01 16:31:13;;;;;;;19.90;17.80;;;18.50;81.30;;;;;;4883780;29;20176;-85
2021/09/01 16:33:42;;;;;;;20.80;18.53;;;18.70;79.50;;;;;;4864560;29;20463;-85
2021/09/01 16:36:07;;;;;;;21.60;19.40;;;18.70;79.70;;;;;;4880269;29;20894;-86
2021/09/01 16:38:37;;;;;;;20.03;18.10;;;18.60;80.70;;;;;;4880840;29;20425;-83
2021/09/01 16:41:03;;;;;;;25.43;21.73;;;18.50;80.50;;;;;;4879959;29;20165;-86
2021/09/01 16:43:33;;;;;;;22.07;19.70;;;18.50;81.50;;;;;;4880581;29;20417;-87
2021/09/01 16:46:00;;;;;;;22.97;20.77;;;20.10;85.60;;;;;;4880103;29;20957;-85
2021/09/01 16:48:27;;;;;;;24.20;21.57;;;18.50;84.10;;;;;;4881244;29;20421;-86
2021/09/01 16:50:55;;;;;;;21.27;17.70;;;19.20;84.60;;;;;;4864848;29;20587;-83